sensor_id;sensor_type;location;lat;lon;timestamp;temperature;humidity
35377;DHT22;21480;51.642;4.834;2022-09-23T00:00:46;8.00;99.90
35377;DHT22;21480;51.642;4.834;2022-09-23T00:03:13;8.00;99.90
35377;DHT22;21480;51.642;4.834;2022-09-23T00:05:39;8.00;99.90
35377;DHT22;21480;51.642;4.834;2022-09-23T00:08:06;7.90;99.90
35377;DHT22;21480;51.642;4.834;2022-09-23T00:10:36;7.90;99.90
35377;DHT22;21480;51.642;4.834;2022-09-23T00:13:02;7.90;99.90
35377;DHT22;21480;51.642;4.834;2022-09-23T00:15:28;7.80;99.90
35377;DHT22;21480;51.642;4.834;2022-09-23T00:17:55;7.80;99.90
35377;DHT22;21480;51.642;4.834;2022-09-23T00:20:21;7.80;99.90
35377;DHT22;21480;51.642;4.834;2022-09-23T00:22:47;7.70;99.90
35377;DHT22;21480;51.642;4.834;2022-09-23T00:25:13;7.70;99.90
35377;DHT22;21480;51.642;4.834;2022-09-23T00:27:40;7.60;99.90
35377;DHT22;21480;51.642;4.834;2022-09-23T00:30:08;7.60;99.90
35377;DHT22;21480;51.642;4.834;2022-09-23T00:32:36;7.60;99.90
35377;DHT22;21480;51.642;4.834;2022-09-23T00:35:02;7.60;99.90
35377;DHT22;21480;51.642;4.834;2022-09-23T00:37:28;7.60;99.90
35377;DHT22;21480;51.642;4.834;2022-09-23T00:39:54;7.60;99.90
35377;DHT22;21480;51.642;4.834;2022-09-23T00:42:21;7.60;99.90
35377;DHT22;21480;51.642;4.834;2022-09-23T00:44:51;7.50;99.90
35377;DHT22;21480;51.642;4.834;2022-09-23T00:47:31;7.50;99.90
35377;DHT22;21480;51.642;4.834;2022-09-23T00:50:08;7.50;99.90
35377;DHT22;21480;51.642;4.834;2022-09-23T00:52:35;7.40;99.90
35377;DHT22;21480;51.642;4.834;2022-09-23T00:55:26;7.40;99.90
35377;DHT22;21480;51.642;4.834;2022-09-23T00:57:52;7.40;99.90
35377;DHT22;21480;51.642;4.834;2022-09-23T01:00:23;7.30;99.90
35377;DHT22;21480;51.642;4.834;2022-09-23T01:02:49;7.30;99.90
35377;DHT22;21480;51.642;4.834;2022-09-23T01:05:15;7.30;99.90
35377;DHT22;21480;51.642;4.834;2022-09-23T01:07:42;7.30;99.90
35377;DHT22;21480;51.642;4.834;2022-09-23T01:10:10;7.20;99.90
35377;DHT22;21480;51.642;4.834;2022-09-23T01:26:13;7.20;99.90
35377;DHT22;21480;51.642;4.834;2022-09-23T01:29:15;7.20;99.90
35377;DHT22;21480;51.642;4.834;2022-09-23T01:34:30;7.20;99.90
35377;DHT22;21480;51.642;4.834;2022-09-23T01:37:16;7.20;99.90
35377;DHT22;21480;51.642;4.834;2022-09-23T01:40:06;7.20;99.90
35377;DHT22;21480;51.642;4.834;2022-09-23T01:42:43;7.20;99.90
35377;DHT22;21480;51.642;4.834;2022-09-23T01:45:17;7.20;99.90
35377;DHT22;21480;51.642;4.834;2022-09-23T01:47:54;7.20;99.90
35377;DHT22;21480;51.642;4.834;2022-09-23T01:50:31;7.30;99.90
35377;DHT22;21480;51.642;4.834;2022-09-23T01:53:45;7.20;99.90
35377;DHT22;21480;51.642;4.834;2022-09-23T01:56:27;7.20;99.90
35377;DHT22;21480;51.642;4.834;2022-09-23T01:59:01;7.20;99.90
35377;DHT22;21480;51.642;4.834;2022-09-23T02:01:54;7.20;99.90
35377;DHT22;21480;51.642;4.834;2022-09-23T02:04:29;7.30;99.90
35377;DHT22;21480;51.642;4.834;2022-09-23T02:07:14;7.20;99.90
35377;DHT22;21480;51.642;4.834;2022-09-23T02:09:43;7.20;99.90
35377;DHT22;21480;51.642;4.834;2022-09-23T02:12:16;7.20;99.90
35377;DHT22;21480;51.642;4.834;2022-09-23T02:15:05;7.20;99.90
35377;DHT22;21480;51.642;4.834;2022-09-23T02:17:36;7.10;99.90
35377;DHT22;21480;51.642;4.834;2022-09-23T02:20:06;7.10;99.90
35377;DHT22;21480;51.642;4.834;2022-09-23T02:25:30;7.00;99.90
35377;DHT22;21480;51.642;4.834;2022-09-23T02:28:28;7.00;99.90
35377;DHT22;21480;51.642;4.834;2022-09-23T02:31:07;7.00;99.90
35377;DHT22;21480;51.642;4.834;2022-09-23T02:33:40;6.90;99.90
35377;DHT22;21480;51.642;4.834;2022-09-23T02:36:29;6.90;99.90
35377;DHT22;21480;51.642;4.834;2022-09-23T02:39:04;6.90;99.90
35377;DHT22;21480;51.642;4.834;2022-09-23T02:41:59;6.80;99.90
35377;DHT22;21480;51.642;4.834;2022-09-23T02:44:27;6.80;99.90
35377;DHT22;21480;51.642;4.834;2022-09-23T02:46:53;6.80;99.90
35377;DHT22;21480;51.642;4.834;2022-09-23T02:49:28;6.70;99.90
35377;DHT22;21480;51.642;4.834;2022-09-23T02:51:55;6.70;99.90
35377;DHT22;21480;51.642;4.834;2022-09-23T02:54:24;6.70;99.90
35377;DHT22;21480;51.642;4.834;2022-09-23T02:56:51;6.80;99.90
35377;DHT22;21480;51.642;4.834;2022-09-23T02:59:20;6.70;99.90
35377;DHT22;21480;51.642;4.834;2022-09-23T03:04:48;6.80;99.90
35377;DHT22;21480;51.642;4.834;2022-09-23T03:07:34;6.80;99.90
35377;DHT22;21480;51.642;4.834;2022-09-23T03:10:12;6.80;99.90
35377;DHT22;21480;51.642;4.834;2022-09-23T03:15:36;6.80;99.90
35377;DHT22;21480;51.642;4.834;2022-09-23T03:18:14;6.90;99.90
35377;DHT22;21480;51.642;4.834;2022-09-23T03:20:48;6.90;99.90
35377;DHT22;21480;51.642;4.834;2022-09-23T03:23:19;6.90;99.90
35377;DHT22;21480;51.642;4.834;2022-09-23T03:25:49;6.90;99.90
35377;DHT22;21480;51.642;4.834;2022-09-23T03:28:19;6.90;99.90
35377;DHT22;21480;51.642;4.834;2022-09-23T03:30:50;6.90;99.90
35377;DHT22;21480;51.642;4.834;2022-09-23T03:33:18;6.90;99.90
35377;DHT22;21480;51.642;4.834;2022-09-23T03:35:51;6.90;99.90
35377;DHT22;21480;51.642;4.834;2022-09-23T03:38:40;6.90;99.90
35377;DHT22;21480;51.642;4.834;2022-09-23T03:41:13;7.00;99.90
35377;DHT22;21480;51.642;4.834;2022-09-23T03:43:42;7.00;99.90
35377;DHT22;21480;51.642;4.834;2022-09-23T03:46:09;7.00;99.90
35377;DHT22;21480;51.642;4.834;2022-09-23T03:48:35;7.00;99.90
35377;DHT22;21480;51.642;4.834;2022-09-23T03:51:16;7.00;99.90
35377;DHT22;21480;51.642;4.834;2022-09-23T03:53:44;7.10;99.90
35377;DHT22;21480;51.642;4.834;2022-09-23T03:56:09;7.10;99.90
35377;DHT22;21480;51.642;4.834;2022-09-23T03:58:36;7.20;99.90
35377;DHT22;21480;51.642;4.834;2022-09-23T04:01:02;7.20;99.90
35377;DHT22;21480;51.642;4.834;2022-09-23T04:03:28;7.30;99.90
35377;DHT22;21480;51.642;4.834;2022-09-23T04:05:54;7.30;99.90
35377;DHT22;21480;51.642;4.834;2022-09-23T04:08:20;7.30;99.90
35377;DHT22;21480;51.642;4.834;2022-09-23T04:10:46;7.30;99.90
35377;DHT22;21480;51.642;4.834;2022-09-23T04:13:11;7.30;99.90
35377;DHT22;21480;51.642;4.834;2022-09-23T04:15:37;7.40;99.90
35377;DHT22;21480;51.642;4.834;2022-09-23T04:18:04;7.40;99.90
35377;DHT22;21480;51.642;4.834;2022-09-23T04:20:30;7.40;99.90
35377;DHT22;21480;51.642;4.834;2022-09-23T04:22:55;7.50;99.90
35377;DHT22;21480;51.642;4.834;2022-09-23T04:25:21;7.50;99.90
35377;DHT22;21480;51.642;4.834;2022-09-23T04:27:47;7.50;99.90
35377;DHT22;21480;51.642;4.834;2022-09-23T04:30:13;7.50;99.90
35377;DHT22;21480;51.642;4.834;2022-09-23T04:32:45;7.50;99.90
35377;DHT22;21480;51.642;4.834;2022-09-23T04:35:11;7.50;99.90
35377;DHT22;21480;51.642;4.834;2022-09-23T04:37:36;7.60;99.90
35377;DHT22;21480;51.642;4.834;2022-09-23T04:40:02;7.60;99.90
35377;DHT22;21480;51.642;4.834;2022-09-23T04:42:28;7.60;99.90
35377;DHT22;21480;51.642;4.834;2022-09-23T04:44:55;7.60;99.90
35377;DHT22;21480;51.642;4.834;2022-09-23T04:47:20;7.70;99.90
35377;DHT22;21480;51.642;4.834;2022-09-23T04:49:46;7.70;99.90
35377;DHT22;21480;51.642;4.834;2022-09-23T04:52:12;7.70;99.90
35377;DHT22;21480;51.642;4.834;2022-09-23T04:54:37;7.80;99.90
35377;DHT22;21480;51.642;4.834;2022-09-23T04:57:03;7.80;99.90
35377;DHT22;21480;51.642;4.834;2022-09-23T04:59:29;7.80;99.90
35377;DHT22;21480;51.642;4.834;2022-09-23T05:01:54;7.80;99.90
35377;DHT22;21480;51.642;4.834;2022-09-23T05:04:20;7.80;99.90
35377;DHT22;21480;51.642;4.834;2022-09-23T05:06:45;7.80;99.90
35377;DHT22;21480;51.642;4.834;2022-09-23T05:09:14;7.90;99.90
35377;DHT22;21480;51.642;4.834;2022-09-23T05:11:42;7.80;99.90
35377;DHT22;21480;51.642;4.834;2022-09-23T05:14:08;7.90;99.90
35377;DHT22;21480;51.642;4.834;2022-09-23T05:16:34;7.90;99.90
35377;DHT22;21480;51.642;4.834;2022-09-23T05:19:00;7.90;99.90
35377;DHT22;21480;51.642;4.834;2022-09-23T05:21:27;8.00;99.90
35377;DHT22;21480;51.642;4.834;2022-09-23T05:23:56;8.00;99.90
35377;DHT22;21480;51.642;4.834;2022-09-23T05:26:28;8.00;99.90
35377;DHT22;21480;51.642;4.834;2022-09-23T05:28:55;8.00;99.90
35377;DHT22;21480;51.642;4.834;2022-09-23T05:31:25;8.00;99.90
35377;DHT22;21480;51.642;4.834;2022-09-23T05:33:54;8.00;99.90
35377;DHT22;21480;51.642;4.834;2022-09-23T05:36:22;8.10;99.90
35377;DHT22;21480;51.642;4.834;2022-09-23T05:38:49;8.10;99.90
35377;DHT22;21480;51.642;4.834;2022-09-23T05:41:16;8.10;99.90
35377;DHT22;21480;51.642;4.834;2022-09-23T05:43:42;8.10;99.90
35377;DHT22;21480;51.642;4.834;2022-09-23T05:46:13;8.10;99.90
35377;DHT22;21480;51.642;4.834;2022-09-23T05:48:40;8.10;99.90
35377;DHT22;21480;51.642;4.834;2022-09-23T05:51:07;8.10;99.90
35377;DHT22;21480;51.642;4.834;2022-09-23T05:53:34;8.20;99.90
35377;DHT22;21480;51.642;4.834;2022-09-23T05:56:01;8.20;99.90
35377;DHT22;21480;51.642;4.834;2022-09-23T05:58:27;8.20;99.90
35377;DHT22;21480;51.642;4.834;2022-09-23T06:00:53;8.20;99.90
35377;DHT22;21480;51.642;4.834;2022-09-23T06:03:27;8.20;99.90
35377;DHT22;21480;51.642;4.834;2022-09-23T06:05:53;8.20;99.90
35377;DHT22;21480;51.642;4.834;2022-09-23T06:08:20;8.20;99.90
35377;DHT22;21480;51.642;4.834;2022-09-23T06:10:46;8.30;99.90
35377;DHT22;21480;51.642;4.834;2022-09-23T06:13:13;8.40;99.90
35377;DHT22;21480;51.642;4.834;2022-09-23T06:15:40;8.40;99.90
35377;DHT22;21480;51.642;4.834;2022-09-23T06:18:07;8.50;99.90
35377;DHT22;21480;51.642;4.834;2022-09-23T06:20:33;8.60;99.90
35377;DHT22;21480;51.642;4.834;2022-09-23T06:23:12;8.60;99.90
35377;DHT22;21480;51.642;4.834;2022-09-23T06:25:38;8.70;99.90
35377;DHT22;21480;51.642;4.834;2022-09-23T06:28:03;8.70;99.90
35377;DHT22;21480;51.642;4.834;2022-09-23T06:30:30;8.80;99.90
35377;DHT22;21480;51.642;4.834;2022-09-23T06:32:56;8.90;99.90
35377;DHT22;21480;51.642;4.834;2022-09-23T06:35:29;9.00;99.90
35377;DHT22;21480;51.642;4.834;2022-09-23T06:37:57;9.10;99.90
35377;DHT22;21480;51.642;4.834;2022-09-23T06:40:22;9.20;99.90
35377;DHT22;21480;51.642;4.834;2022-09-23T06:42:56;9.40;99.90
35377;DHT22;21480;51.642;4.834;2022-09-23T06:45:23;9.50;99.90
35377;DHT22;21480;51.642;4.834;2022-09-23T06:47:56;9.70;99.90
35377;DHT22;21480;51.642;4.834;2022-09-23T06:50:26;9.80;99.90
35377;DHT22;21480;51.642;4.834;2022-09-23T06:52:53;10.00;99.90
35377;DHT22;21480;51.642;4.834;2022-09-23T06:55:24;10.10;99.90
35377;DHT22;21480;51.642;4.834;2022-09-23T06:57:53;10.20;99.90
35377;DHT22;21480;51.642;4.834;2022-09-23T07:00:19;10.40;99.90
35377;DHT22;21480;51.642;4.834;2022-09-23T07:02:45;10.50;99.90
35377;DHT22;21480;51.642;4.834;2022-09-23T07:05:11;10.60;99.90
35377;DHT22;21480;51.642;4.834;2022-09-23T07:07:37;10.80;99.90
35377;DHT22;21480;51.642;4.834;2022-09-23T07:10:05;10.90;99.90
35377;DHT22;21480;51.642;4.834;2022-09-23T07:12:34;11.00;99.90
35377;DHT22;21480;51.642;4.834;2022-09-23T07:14:59;11.10;99.90
35377;DHT22;21480;51.642;4.834;2022-09-23T07:17:25;11.20;99.90
35377;DHT22;21480;51.642;4.834;2022-09-23T07:19:51;11.20;99.90
35377;DHT22;21480;51.642;4.834;2022-09-23T07:22:20;11.30;99.90
35377;DHT22;21480;51.642;4.834;2022-09-23T07:24:46;11.40;99.90
35377;DHT22;21480;51.642;4.834;2022-09-23T07:27:12;11.40;99.90
35377;DHT22;21480;51.642;4.834;2022-09-23T07:29:42;11.50;99.90
35377;DHT22;21480;51.642;4.834;2022-09-23T07:32:08;11.50;99.90
35377;DHT22;21480;51.642;4.834;2022-09-23T07:34:34;11.60;99.90
35377;DHT22;21480;51.642;4.834;2022-09-23T07:37:01;11.70;99.90
35377;DHT22;21480;51.642;4.834;2022-09-23T07:39:27;11.80;99.90
35377;DHT22;21480;51.642;4.834;2022-09-23T07:41:53;11.90;99.90
35377;DHT22;21480;51.642;4.834;2022-09-23T07:44:18;12.00;99.90
35377;DHT22;21480;51.642;4.834;2022-09-23T07:46:46;12.20;99.90
35377;DHT22;21480;51.642;4.834;2022-09-23T07:49:12;12.30;99.90
35377;DHT22;21480;51.642;4.834;2022-09-23T07:51:39;12.50;99.90
35377;DHT22;21480;51.642;4.834;2022-09-23T07:54:09;12.60;99.90
35377;DHT22;21480;51.642;4.834;2022-09-23T07:56:36;12.80;99.90
35377;DHT22;21480;51.642;4.834;2022-09-23T07:59:03;12.90;99.90
35377;DHT22;21480;51.642;4.834;2022-09-23T08:01:34;13.20;99.90
35377;DHT22;21480;51.642;4.834;2022-09-23T08:04:06;13.40;99.90
35377;DHT22;21480;51.642;4.834;2022-09-23T08:06:32;13.70;99.90
35377;DHT22;21480;51.642;4.834;2022-09-23T08:08:59;13.90;99.90
35377;DHT22;21480;51.642;4.834;2022-09-23T08:11:26;14.10;99.90
35377;DHT22;21480;51.642;4.834;2022-09-23T08:13:52;14.30;99.90
35377;DHT22;21480;51.642;4.834;2022-09-23T08:16:19;14.40;99.90
35377;DHT22;21480;51.642;4.834;2022-09-23T08:18:45;14.50;99.90
35377;DHT22;21480;51.642;4.834;2022-09-23T08:21:11;14.40;99.90
35377;DHT22;21480;51.642;4.834;2022-09-23T08:23:37;14.40;99.90
35377;DHT22;21480;51.642;4.834;2022-09-23T08:26:05;14.50;99.90
35377;DHT22;21480;51.642;4.834;2022-09-23T08:28:31;14.60;99.90
35377;DHT22;21480;51.642;4.834;2022-09-23T08:30:59;14.70;99.90
35377;DHT22;21480;51.642;4.834;2022-09-23T08:33:24;14.70;99.90
35377;DHT22;21480;51.642;4.834;2022-09-23T08:35:51;14.70;99.90
35377;DHT22;21480;51.642;4.834;2022-09-23T08:38:18;14.80;99.90
35377;DHT22;21480;51.642;4.834;2022-09-23T08:40:47;14.90;99.90
35377;DHT22;21480;51.642;4.834;2022-09-23T08:43:25;14.80;99.90
35377;DHT22;21480;51.642;4.834;2022-09-23T08:45:52;14.90;99.90
35377;DHT22;21480;51.642;4.834;2022-09-23T08:48:31;14.90;99.90
35377;DHT22;21480;51.642;4.834;2022-09-23T08:51:04;15.10;99.90
35377;DHT22;21480;51.642;4.834;2022-09-23T08:53:34;15.30;99.90
35377;DHT22;21480;51.642;4.834;2022-09-23T08:56:18;15.50;99.90
35377;DHT22;21480;51.642;4.834;2022-09-23T08:58:59;15.70;99.90
35377;DHT22;21480;51.642;4.834;2022-09-23T09:01:45;15.90;99.90
35377;DHT22;21480;51.642;4.834;2022-09-23T09:04:43;16.10;99.90
35377;DHT22;21480;51.642;4.834;2022-09-23T09:07:34;16.30;99.90
35377;DHT22;21480;51.642;4.834;2022-09-23T09:10:14;16.50;99.90
35377;DHT22;21480;51.642;4.834;2022-09-23T09:12:43;16.60;99.90
35377;DHT22;21480;51.642;4.834;2022-09-23T09:15:13;16.70;99.90
35377;DHT22;21480;51.642;4.834;2022-09-23T09:22:54;16.70;99.90
35377;DHT22;21480;51.642;4.834;2022-09-23T09:25:44;16.80;99.90
35377;DHT22;21480;51.642;4.834;2022-09-23T09:30:45;16.70;99.90
35377;DHT22;21480;51.642;4.834;2022-09-23T09:33:16;16.90;99.90
35377;DHT22;21480;51.642;4.834;2022-09-23T09:36:03;16.90;99.90
35377;DHT22;21480;51.642;4.834;2022-09-23T09:38:36;17.10;99.90
35377;DHT22;21480;51.642;4.834;2022-09-23T09:41:13;17.30;99.90
35377;DHT22;21480;51.642;4.834;2022-09-23T09:43:40;17.30;99.90
35377;DHT22;21480;51.642;4.834;2022-09-23T09:46:29;17.30;99.90
35377;DHT22;21480;51.642;4.834;2022-09-23T09:49:02;17.40;99.90
35377;DHT22;21480;51.642;4.834;2022-09-23T09:51:31;17.40;99.90
35377;DHT22;21480;51.642;4.834;2022-09-23T09:54:19;17.60;99.90
35377;DHT22;21480;51.642;4.834;2022-09-23T09:56:47;17.60;99.90
35377;DHT22;21480;51.642;4.834;2022-09-23T09:59:18;17.70;99.90
35377;DHT22;21480;51.642;4.834;2022-09-23T10:01:49;17.90;99.90
35377;DHT22;21480;51.642;4.834;2022-09-23T10:04:34;18.10;99.90
35377;DHT22;21480;51.642;4.834;2022-09-23T10:07:11;18.30;99.90
35377;DHT22;21480;51.642;4.834;2022-09-23T10:09:38;18.20;99.90
35377;DHT22;21480;51.642;4.834;2022-09-23T10:14:46;18.10;99.90
35377;DHT22;21480;51.642;4.834;2022-09-23T10:17:22;18.30;99.90
35377;DHT22;21480;51.642;4.834;2022-09-23T10:20:00;18.70;99.90
35377;DHT22;21480;51.642;4.834;2022-09-23T10:22:31;18.80;99.90
35377;DHT22;21480;51.642;4.834;2022-09-23T10:25:00;19.00;99.90
35377;DHT22;21480;51.642;4.834;2022-09-23T10:27:33;18.90;99.90
35377;DHT22;21480;51.642;4.834;2022-09-23T10:30:21;19.00;99.90
35377;DHT22;21480;51.642;4.834;2022-09-23T10:32:51;19.00;99.90
35377;DHT22;21480;51.642;4.834;2022-09-23T10:35:20;19.20;99.90
35377;DHT22;21480;51.642;4.834;2022-09-23T10:58:14;20.20;99.90
35377;DHT22;21480;51.642;4.834;2022-09-23T11:00:50;20.30;99.90
35377;DHT22;21480;51.642;4.834;2022-09-23T11:11:39;19.90;99.90
35377;DHT22;21480;51.642;4.834;2022-09-23T11:25:58;19.90;99.90
35377;DHT22;21480;51.642;4.834;2022-09-23T11:39:00;19.80;99.90
35377;DHT22;21480;51.642;4.834;2022-09-23T11:41:35;19.80;99.90
35377;DHT22;21480;51.642;4.834;2022-09-23T11:44:25;19.70;99.90
35377;DHT22;21480;51.642;4.834;2022-09-23T11:47:07;19.90;99.90
35377;DHT22;21480;51.642;4.834;2022-09-23T11:49:40;20.10;99.90
35377;DHT22;21480;51.642;4.834;2022-09-23T11:52:29;20.00;99.90
35377;DHT22;21480;51.642;4.834;2022-09-23T11:57:50;19.80;99.90
35377;DHT22;21480;51.642;4.834;2022-09-23T12:00:22;19.80;99.90
35377;DHT22;21480;51.642;4.834;2022-09-23T12:05:44;20.10;99.90
35377;DHT22;21480;51.642;4.834;2022-09-23T12:11:22;19.70;99.90
35377;DHT22;21480;51.642;4.834;2022-09-23T12:26:00;19.80;99.90
35377;DHT22;21480;51.642;4.834;2022-09-23T12:28:32;19.80;99.90
35377;DHT22;21480;51.642;4.834;2022-09-23T12:31:01;19.70;99.90
35377;DHT22;21480;51.642;4.834;2022-09-23T12:33:29;19.50;99.90
35377;DHT22;21480;51.642;4.834;2022-09-23T12:36:10;19.50;99.90
35377;DHT22;21480;51.642;4.834;2022-09-23T12:38:59;19.70;99.90
35377;DHT22;21480;51.642;4.834;2022-09-23T12:41:35;19.50;99.90
35377;DHT22;21480;51.642;4.834;2022-09-23T12:44:36;19.40;99.90
35377;DHT22;21480;51.642;4.834;2022-09-23T12:49:53;19.30;99.90
35377;DHT22;21480;51.642;4.834;2022-09-23T12:54:49;19.50;99.90
35377;DHT22;21480;51.642;4.834;2022-09-23T13:02:36;19.80;99.90
35377;DHT22;21480;51.642;4.834;2022-09-23T13:05:24;19.80;99.90
35377;DHT22;21480;51.642;4.834;2022-09-23T13:08:16;20.00;99.90
35377;DHT22;21480;51.642;4.834;2022-09-23T13:10:55;19.70;99.90
35377;DHT22;21480;51.642;4.834;2022-09-23T13:15:51;19.90;99.90
35377;DHT22;21480;51.642;4.834;2022-09-23T13:20:50;19.70;99.90
35377;DHT22;21480;51.642;4.834;2022-09-23T13:25:49;19.60;99.90
35377;DHT22;21480;51.642;4.834;2022-09-23T13:28:52;19.80;99.90
35377;DHT22;21480;51.642;4.834;2022-09-23T13:31:19;20.10;99.90
35377;DHT22;21480;51.642;4.834;2022-09-23T13:33:55;20.10;99.90
35377;DHT22;21480;51.642;4.834;2022-09-23T13:36:24;20.10;99.90
35377;DHT22;21480;51.642;4.834;2022-09-23T13:38:51;20.10;99.90
35377;DHT22;21480;51.642;4.834;2022-09-23T13:41:19;20.00;99.90
35377;DHT22;21480;51.642;4.834;2022-09-23T13:43:49;20.10;99.90
35377;DHT22;21480;51.642;4.834;2022-09-23T13:46:29;19.90;99.90
35377;DHT22;21480;51.642;4.834;2022-09-23T13:48:55;19.60;99.90
35377;DHT22;21480;51.642;4.834;2022-09-23T13:51:27;19.60;99.90
35377;DHT22;21480;51.642;4.834;2022-09-23T13:53:58;19.50;99.90
35377;DHT22;21480;51.642;4.834;2022-09-23T13:56:27;19.50;99.90
35377;DHT22;21480;51.642;4.834;2022-09-23T13:58:53;19.20;99.90
35377;DHT22;21480;51.642;4.834;2022-09-23T14:03:56;19.00;99.90
35377;DHT22;21480;51.642;4.834;2022-09-23T14:06:22;18.90;99.90
35377;DHT22;21480;51.642;4.834;2022-09-23T14:08:49;18.70;99.90
35377;DHT22;21480;51.642;4.834;2022-09-23T14:11:28;18.70;99.90
35377;DHT22;21480;51.642;4.834;2022-09-23T14:13:55;18.70;99.90
35377;DHT22;21480;51.642;4.834;2022-09-23T14:16:23;18.60;99.90
35377;DHT22;21480;51.642;4.834;2022-09-23T14:18:55;18.50;99.90
35377;DHT22;21480;51.642;4.834;2022-09-23T14:21:36;18.50;99.90
35377;DHT22;21480;51.642;4.834;2022-09-23T14:24:12;18.40;99.90
35377;DHT22;21480;51.642;4.834;2022-09-23T14:26:40;18.40;99.90
35377;DHT22;21480;51.642;4.834;2022-09-23T14:29:22;18.40;99.90
35377;DHT22;21480;51.642;4.834;2022-09-23T14:31:53;18.30;99.90
35377;DHT22;21480;51.642;4.834;2022-09-23T14:34:49;18.20;99.90
35377;DHT22;21480;51.642;4.834;2022-09-23T14:42:41;17.90;99.90
35377;DHT22;21480;51.642;4.834;2022-09-23T14:45:13;18.00;99.90
35377;DHT22;21480;51.642;4.834;2022-09-23T14:47:43;17.90;99.90
35377;DHT22;21480;51.642;4.834;2022-09-23T14:50:15;17.80;99.90
35377;DHT22;21480;51.642;4.834;2022-09-23T14:55:46;17.70;99.90
35377;DHT22;21480;51.642;4.834;2022-09-23T14:58:16;17.70;99.90
35377;DHT22;21480;51.642;4.834;2022-09-23T15:00:54;17.50;99.90
35377;DHT22;21480;51.642;4.834;2022-09-23T15:03:20;17.50;99.90
35377;DHT22;21480;51.642;4.834;2022-09-23T15:05:48;17.40;99.90
35377;DHT22;21480;51.642;4.834;2022-09-23T15:08:22;17.30;99.90
35377;DHT22;21480;51.642;4.834;2022-09-23T15:10:48;17.30;99.90
35377;DHT22;21480;51.642;4.834;2022-09-23T15:13:16;17.20;99.90
35377;DHT22;21480;51.642;4.834;2022-09-23T15:15:43;17.20;99.90
35377;DHT22;21480;51.642;4.834;2022-09-23T15:18:19;17.10;99.90
35377;DHT22;21480;51.642;4.834;2022-09-23T15:20:55;17.10;99.90
35377;DHT22;21480;51.642;4.834;2022-09-23T15:26:16;17.00;99.90
35377;DHT22;21480;51.642;4.834;2022-09-23T15:28:43;16.90;99.90
35377;DHT22;21480;51.642;4.834;2022-09-23T15:31:13;16.90;99.90
35377;DHT22;21480;51.642;4.834;2022-09-23T15:33:44;16.90;99.90
35377;DHT22;21480;51.642;4.834;2022-09-23T15:36:17;16.80;99.90
35377;DHT22;21480;51.642;4.834;2022-09-23T15:38:45;16.80;99.90
35377;DHT22;21480;51.642;4.834;2022-09-23T15:41:12;16.90;99.90
35377;DHT22;21480;51.642;4.834;2022-09-23T15:43:42;16.80;99.90
35377;DHT22;21480;51.642;4.834;2022-09-23T15:46:21;16.70;99.90
35377;DHT22;21480;51.642;4.834;2022-09-23T15:48:55;16.60;99.90
35377;DHT22;21480;51.642;4.834;2022-09-23T15:51:22;16.60;99.90
35377;DHT22;21480;51.642;4.834;2022-09-23T15:53:48;16.60;99.90
35377;DHT22;21480;51.642;4.834;2022-09-23T15:56:15;16.60;99.90
35377;DHT22;21480;51.642;4.834;2022-09-23T15:58:41;16.50;99.90
35377;DHT22;21480;51.642;4.834;2022-09-23T16:03:46;16.50;99.90
35377;DHT22;21480;51.642;4.834;2022-09-23T16:06:12;16.40;99.90
35377;DHT22;21480;51.642;4.834;2022-09-23T16:08:38;16.30;99.90
35377;DHT22;21480;51.642;4.834;2022-09-23T16:11:16;16.30;99.90
35377;DHT22;21480;51.642;4.834;2022-09-23T16:13:44;16.10;99.90
35377;DHT22;21480;51.642;4.834;2022-09-23T16:16:10;16.10;99.90
35377;DHT22;21480;51.642;4.834;2022-09-23T16:18:36;16.00;99.90
35377;DHT22;21480;51.642;4.834;2022-09-23T16:21:04;16.00;99.90
35377;DHT22;21480;51.642;4.834;2022-09-23T16:23:36;16.00;99.90
35377;DHT22;21480;51.642;4.834;2022-09-23T16:26:21;15.90;99.90
35377;DHT22;21480;51.642;4.834;2022-09-23T16:28:49;15.80;99.90
35377;DHT22;21480;51.642;4.834;2022-09-23T16:31:16;15.80;99.90
35377;DHT22;21480;51.642;4.834;2022-09-23T16:33:46;15.70;99.90
35377;DHT22;21480;51.642;4.834;2022-09-23T16:36:29;15.70;99.90
35377;DHT22;21480;51.642;4.834;2022-09-23T16:38:57;15.60;99.90
35377;DHT22;21480;51.642;4.834;2022-09-23T16:41:24;15.50;99.90
35377;DHT22;21480;51.642;4.834;2022-09-23T16:43:50;15.40;99.90
35377;DHT22;21480;51.642;4.834;2022-09-23T16:46:18;15.40;99.90
35377;DHT22;21480;51.642;4.834;2022-09-23T16:48:44;15.30;99.90
35377;DHT22;21480;51.642;4.834;2022-09-23T16:53:40;15.20;99.90
35377;DHT22;21480;51.642;4.834;2022-09-23T16:56:08;15.20;99.90
35377;DHT22;21480;51.642;4.834;2022-09-23T16:58:35;15.10;99.90
35377;DHT22;21480;51.642;4.834;2022-09-23T17:01:01;15.10;99.90
35377;DHT22;21480;51.642;4.834;2022-09-23T17:03:45;15.00;99.90
35377;DHT22;21480;51.642;4.834;2022-09-23T17:06:13;14.90;99.90
35377;DHT22;21480;51.642;4.834;2022-09-23T17:08:40;14.90;99.90
35377;DHT22;21480;51.642;4.834;2022-09-23T17:11:07;14.90;99.90
35377;DHT22;21480;51.642;4.834;2022-09-23T17:13:33;14.80;99.90
35377;DHT22;21480;51.642;4.834;2022-09-23T17:15:59;14.90;99.90
35377;DHT22;21480;51.642;4.834;2022-09-23T17:18:26;14.80;99.90
35377;DHT22;21480;51.642;4.834;2022-09-23T17:20:56;14.80;99.90
35377;DHT22;21480;51.642;4.834;2022-09-23T17:23:23;14.70;99.90
35377;DHT22;21480;51.642;4.834;2022-09-23T17:25:51;14.70;99.90
35377;DHT22;21480;51.642;4.834;2022-09-23T17:28:16;14.60;99.90
35377;DHT22;21480;51.642;4.834;2022-09-23T17:30:42;14.60;99.90
35377;DHT22;21480;51.642;4.834;2022-09-23T17:33:08;14.50;99.90
35377;DHT22;21480;51.642;4.834;2022-09-23T17:35:33;14.50;99.90
35377;DHT22;21480;51.642;4.834;2022-09-23T17:37:59;14.50;99.90
35377;DHT22;21480;51.642;4.834;2022-09-23T17:40:25;14.50;99.90
35377;DHT22;21480;51.642;4.834;2022-09-23T17:42:51;14.40;99.90
35377;DHT22;21480;51.642;4.834;2022-09-23T17:45:19;14.40;99.90
35377;DHT22;21480;51.642;4.834;2022-09-23T17:47:45;14.40;99.90
35377;DHT22;21480;51.642;4.834;2022-09-23T17:50:19;14.40;99.90
35377;DHT22;21480;51.642;4.834;2022-09-23T17:52:47;14.40;99.90
35377;DHT22;21480;51.642;4.834;2022-09-23T17:55:12;14.30;99.90
35377;DHT22;21480;51.642;4.834;2022-09-23T17:57:38;14.30;99.90
35377;DHT22;21480;51.642;4.834;2022-09-23T18:00:04;14.30;99.90
35377;DHT22;21480;51.642;4.834;2022-09-23T18:02:30;14.30;99.90
35377;DHT22;21480;51.642;4.834;2022-09-23T18:04:56;14.20;99.90
35377;DHT22;21480;51.642;4.834;2022-09-23T18:07:21;14.20;99.90
35377;DHT22;21480;51.642;4.834;2022-09-23T18:09:47;14.20;99.90
35377;DHT22;21480;51.642;4.834;2022-09-23T18:12:13;14.20;99.90
35377;DHT22;21480;51.642;4.834;2022-09-23T18:14:39;14.10;99.90
35377;DHT22;21480;51.642;4.834;2022-09-23T18:17:04;14.10;99.90
35377;DHT22;21480;51.642;4.834;2022-09-23T18:19:33;14.10;99.90
35377;DHT22;21480;51.642;4.834;2022-09-23T18:21:59;14.10;99.90
35377;DHT22;21480;51.642;4.834;2022-09-23T18:24:26;14.00;99.90